createdAt,value
2022-11-25T00:00:39.599Z,0.50
2022-11-25T00:03:24.214Z,0.50
2022-11-25T00:05:55.789Z,0.50
2022-11-25T00:08:24.817Z,0.50
2022-11-25T00:10:54.738Z,0.60
2022-11-25T00:13:24.458Z,0.50
2022-11-25T00:15:54.737Z,0.50
2022-11-25T00:18:24.738Z,0.50
2022-11-25T00:20:55.954Z,0.50
2022-11-25T00:23:30.412Z,0.50
2022-11-25T00:26:11.233Z,0.50
2022-11-25T00:28:41.332Z,0.50
2022-11-25T00:31:12.773Z,0.50
2022-11-25T00:33:42.676Z,0.60
2022-11-25T00:36:18.687Z,0.60
2022-11-25T00:38:48.665Z,0.60
2022-11-25T00:41:35.696Z,0.60
2022-11-25T00:44:21.434Z,0.60
2022-11-25T00:46:51.531Z,0.60
2022-11-25T00:49:20.876Z,0.60
2022-11-25T00:51:52.581Z,0.60
2022-11-25T00:54:22.032Z,0.60
2022-11-25T00:56:51.993Z,0.50
2022-11-25T00:59:21.588Z,0.60
2022-11-25T01:01:51.585Z,0.60
2022-11-25T01:04:21.127Z,0.50
2022-11-25T01:06:52.371Z,0.50
2022-11-25T01:09:21.942Z,0.60
2022-11-25T01:11:52.693Z,0.60
2022-11-25T01:14:23.256Z,0.60
2022-11-25T01:16:53.698Z,0.60
2022-11-25T01:19:23.047Z,0.60
2022-11-25T01:21:54.300Z,0.60
2022-11-25T01:24:24.357Z,0.70
2022-11-25T01:26:56.338Z,0.70
2022-11-25T01:29:25.908Z,0.60
2022-11-25T01:31:57.760Z,0.60
2022-11-25T01:34:30.047Z,0.60
2022-11-25T01:37:01.103Z,0.60
2022-11-25T01:39:33.191Z,0.60
2022-11-25T01:42:03.808Z,0.60
2022-11-25T01:44:34.707Z,0.50
2022-11-25T01:47:13.832Z,0.50
2022-11-25T01:49:46.594Z,0.50
2022-11-25T01:52:22.688Z,0.50
2022-11-25T01:54:55.554Z,0.50
2022-11-25T01:57:29.807Z,0.50
2022-11-25T02:00:04.746Z,0.50
2022-11-25T02:02:35.855Z,0.50
2022-11-25T02:05:09.930Z,0.40
2022-11-25T02:07:43.673Z,0.40
2022-11-25T02:10:16.660Z,0.40
2022-11-25T02:12:48.515Z,0.40
2022-11-25T02:15:18.666Z,0.40
2022-11-25T02:17:49.333Z,0.40
2022-11-25T02:20:21.052Z,0.40
2022-11-25T02:23:00.688Z,0.30
2022-11-25T02:25:34.130Z,0.30
2022-11-25T02:28:09.172Z,0.30
2022-11-25T02:30:39.295Z,0.30
2022-11-25T02:33:09.321Z,0.40
2022-11-25T02:35:40.488Z,0.30
2022-11-25T02:38:12.018Z,0.30
2022-11-25T02:40:49.318Z,0.30
2022-11-25T02:43:19.759Z,0.30
2022-11-25T02:45:58.308Z,0.30
2022-11-25T02:49:00.763Z,0.30
2022-11-25T02:51:22.961Z,0.40
2022-11-25T02:53:53.199Z,0.40
2022-11-25T02:56:26.305Z,0.40
2022-11-25T02:58:56.308Z,0.40
2022-11-25T03:01:25.642Z,0.40
2022-11-25T03:03:55.861Z,0.50
2022-11-25T03:06:25.184Z,0.50
2022-11-25T03:08:56.007Z,0.60
2022-11-25T03:11:46.895Z,0.50
2022-11-25T03:14:16.628Z,0.50
2022-11-25T03:16:46.035Z,0.50
2022-11-25T03:19:15.746Z,0.50
2022-11-25T03:21:45.289Z,0.50
2022-11-25T03:24:15.107Z,0.50
2022-11-25T03:26:45.935Z,0.50
2022-11-25T03:29:16.120Z,0.50
2022-11-25T03:31:45.470Z,0.50
2022-11-25T03:34:15.864Z,0.50
2022-11-25T03:36:45.577Z,0.50
2022-11-25T03:39:15.241Z,0.50
2022-11-25T03:41:45.994Z,0.60
2022-11-25T03:44:16.123Z,0.50
2022-11-25T03:46:45.565Z,0.50
2022-11-25T03:49:15.694Z,0.50
2022-11-25T03:51:45.734Z,0.50
2022-11-25T03:54:15.574Z,0.60
2022-11-25T03:56:46.652Z,0.60
2022-11-25T03:59:16.323Z,0.60
2022-11-25T04:01:45.622Z,0.60
2022-11-25T04:04:15.251Z,0.60
2022-11-25T04:06:44.752Z,0.60
2022-11-25T04:09:14.362Z,0.60
2022-11-25T04:12:00.894Z,0.60
2022-11-25T04:14:32.559Z,0.60
2022-11-25T04:17:02.012Z,0.60
2022-11-25T04:19:31.667Z,0.60
2022-11-25T04:22:01.539Z,0.60
2022-11-25T04:24:31.718Z,0.50
2022-11-25T04:27:01.008Z,0.50
2022-11-25T04:29:32.066Z,0.40
2022-11-25T04:32:01.451Z,0.40
2022-11-25T04:34:31.319Z,0.40
2022-11-25T04:37:00.919Z,0.40
2022-11-25T04:39:30.737Z,0.50
2022-11-25T04:42:13.660Z,0.40
2022-11-25T04:45:01.002Z,0.40
2022-11-25T04:47:34.716Z,0.40
2022-11-25T04:50:04.788Z,0.50
2022-11-25T04:52:35.563Z,0.50
2022-11-25T04:55:05.027Z,0.50
2022-11-25T04:57:34.666Z,0.50
2022-11-25T05:00:07.485Z,0.50
2022-11-25T05:02:37.412Z,0.50
2022-11-25T05:05:08.612Z,0.50
2022-11-25T05:07:39.106Z,0.50
2022-11-25T05:10:09.983Z,0.50
2022-11-25T05:12:39.660Z,0.50
2022-11-25T05:15:12.539Z,0.50
2022-11-25T05:17:42.043Z,0.50
2022-11-25T05:20:13.184Z,0.50
2022-11-25T05:22:42.488Z,0.50
2022-11-25T05:25:12.919Z,0.50
2022-11-25T05:27:42.348Z,0.50
2022-11-25T05:30:15.303Z,0.60
2022-11-25T05:32:45.053Z,0.50
2022-11-25T05:35:15.572Z,0.70
2022-11-25T05:37:45.840Z,0.70
2022-11-25T05:40:16.062Z,0.70
2022-11-25T05:42:45.547Z,0.60
2022-11-25T05:45:16.759Z,0.60
2022-11-25T05:47:46.594Z,0.70
2022-11-25T05:50:16.465Z,0.60
2022-11-25T05:52:45.716Z,0.60
2022-11-25T05:55:15.720Z,0.60
2022-11-25T05:57:45.511Z,0.60
2022-11-25T06:00:23.480Z,0.60
2022-11-25T06:02:56.028Z,0.60
2022-11-25T06:05:26.395Z,0.60
2022-11-25T06:07:55.880Z,0.60
2022-11-25T06:10:25.499Z,0.70
2022-11-25T06:12:55.112Z,0.70
2022-11-25T06:15:26.203Z,0.70
2022-11-25T06:17:55.612Z,0.70
2022-11-25T06:20:25.587Z,0.70
2022-11-25T06:22:55.289Z,0.80
2022-11-25T06:25:25.211Z,0.90
2022-11-25T06:28:12.402Z,1.00
2022-11-25T06:30:44.438Z,0.90
2022-11-25T06:33:13.615Z,0.90
2022-11-25T06:35:43.763Z,0.80
2022-11-25T06:38:13.124Z,1.00
2022-11-25T06:40:43.383Z,1.00
2022-11-25T06:43:12.854Z,0.90
2022-11-25T06:45:45.191Z,0.90
2022-11-25T06:48:14.819Z,0.90
2022-11-25T06:50:44.464Z,0.80
2022-11-25T06:53:13.737Z,0.90
2022-11-25T06:55:43.540Z,1.00
2022-11-25T06:58:35.023Z,0.90
2022-11-25T07:01:05.503Z,0.90
2022-11-25T07:03:35.263Z,1.00
2022-11-25T07:06:06.247Z,0.90
2022-11-25T07:08:35.985Z,1.00
2022-11-25T07:11:07.914Z,1.00
2022-11-25T07:13:37.193Z,1.00
2022-11-25T07:16:09.654Z,1.00
2022-11-25T07:18:39.868Z,1.00
2022-11-25T07:21:11.177Z,1.00
2022-11-25T07:23:41.583Z,1.10
2022-11-25T07:26:13.391Z,1.10
2022-11-25T07:28:43.569Z,1.10
2022-11-25T07:31:28.750Z,1.10
2022-11-25T07:34:02.516Z,1.00
2022-11-25T07:36:33.251Z,1.10
2022-11-25T07:39:05.116Z,1.10
2022-11-25T07:41:35.710Z,1.00
2022-11-25T07:44:07.926Z,1.10
2022-11-25T07:46:40.944Z,1.00
2022-11-25T07:49:13.074Z,1.10
2022-11-25T07:51:45.237Z,1.10
2022-11-25T07:54:15.065Z,1.20
2022-11-25T07:56:46.360Z,1.20
2022-11-25T07:59:17.444Z,1.30
2022-11-25T08:01:50.381Z,1.30
2022-11-25T08:04:21.108Z,1.20
2022-11-25T08:06:53.004Z,1.30
2022-11-25T08:09:24.234Z,1.20
2022-11-25T08:11:54.633Z,1.30
2022-11-25T08:14:23.889Z,1.30
2022-11-25T08:16:55.264Z,1.40
2022-11-25T08:19:29.910Z,1.30
2022-11-25T08:22:01.228Z,1.30
2022-11-25T08:24:30.748Z,1.40
2022-11-25T08:27:01.598Z,1.50
2022-11-25T08:29:31.007Z,1.50
2022-11-25T08:32:05.190Z,1.50
2022-11-25T08:34:38.146Z,1.50
2022-11-25T08:37:07.771Z,1.50
2022-11-25T08:39:52.577Z,1.40
2022-11-25T08:42:23.000Z,1.50
2022-11-25T08:44:55.710Z,1.50
2022-11-25T08:47:27.300Z,1.50
2022-11-25T08:49:57.351Z,1.50
2022-11-25T08:52:29.157Z,1.40
2022-11-25T08:54:58.499Z,1.40
2022-11-25T08:57:29.008Z,1.40
2022-11-25T08:59:58.324Z,1.40
2022-11-25T09:02:29.569Z,1.40
2022-11-25T09:04:58.907Z,1.50
2022-11-25T09:07:30.836Z,1.40
2022-11-25T09:10:00.566Z,1.30
2022-11-25T09:12:30.531Z,1.40
2022-11-25T09:15:00.855Z,1.40
2022-11-25T09:17:32.089Z,1.40
2022-11-25T09:20:01.651Z,1.40
2022-11-25T09:22:31.308Z,1.40
2022-11-25T09:25:00.575Z,1.40
2022-11-25T09:27:30.546Z,1.40
2022-11-25T09:30:00.002Z,1.30
2022-11-25T09:32:31.115Z,1.30
2022-11-25T09:35:00.577Z,1.30
2022-11-25T09:37:30.443Z,1.30
2022-11-25T09:39:59.728Z,1.30
2022-11-25T09:43:06.647Z,1.50
2022-11-25T09:46:01.005Z,1.50
2022-11-25T09:48:53.207Z,1.50
2022-11-25T09:51:26.177Z,1.40
2022-11-25T09:53:58.669Z,1.40
2022-11-25T09:56:35.354Z,1.30
2022-11-25T09:59:09.563Z,1.30
2022-11-25T10:01:49.523Z,1.30
2022-11-25T10:04:26.529Z,1.30
2022-11-25T10:07:01.453Z,1.40
2022-11-25T10:09:33.873Z,1.50
2022-11-25T10:12:08.698Z,1.50
2022-11-25T10:14:44.322Z,1.50
2022-11-25T10:17:18.846Z,1.40
2022-11-25T10:19:58.628Z,1.40
2022-11-25T10:22:31.942Z,1.40
2022-11-25T10:25:05.004Z,1.30
2022-11-25T10:27:44.092Z,1.50
2022-11-25T10:30:19.676Z,1.50
2022-11-25T10:32:56.583Z,1.50
2022-11-25T10:35:35.771Z,1.50
2022-11-25T10:38:08.381Z,1.50
2022-11-25T10:40:38.153Z,1.50
2022-11-25T10:43:13.771Z,1.40
2022-11-25T10:45:50.714Z,1.40
2022-11-25T10:48:43.923Z,1.40
2022-11-25T10:51:27.502Z,1.40
2022-11-25T10:54:27.221Z,1.40
2022-11-25T10:56:59.736Z,1.40
2022-11-25T10:59:33.687Z,1.40
2022-11-25T11:02:20.619Z,1.50
2022-11-25T11:04:56.498Z,1.50
2022-11-25T11:07:29.286Z,1.50
2022-11-25T11:10:20.302Z,1.60
2022-11-25T11:12:58.132Z,1.60
2022-11-25T11:15:29.737Z,1.50
2022-11-25T11:18:01.264Z,1.50
2022-11-25T11:20:34.125Z,1.50
2022-11-25T11:23:15.457Z,1.40
2022-11-25T11:25:56.603Z,1.40
2022-11-25T11:28:33.237Z,1.40
2022-11-25T11:31:05.460Z,1.40
2022-11-25T11:33:42.619Z,1.50
2022-11-25T11:36:28.727Z,1.50
2022-11-25T11:39:19.830Z,1.40
2022-11-25T11:41:56.162Z,1.50
2022-11-25T11:44:37.951Z,1.40
2022-11-25T11:47:21.455Z,1.40
2022-11-25T11:50:13.067Z,1.40
2022-11-25T11:52:52.430Z,1.40
2022-11-25T11:55:40.736Z,1.50
2022-11-25T11:58:19.261Z,1.60
2022-11-25T12:00:55.864Z,1.80
2022-11-25T12:03:29.146Z,1.80
2022-11-25T12:06:02.421Z,1.80
2022-11-25T12:08:37.004Z,1.80
2022-11-25T12:11:14.170Z,1.70
2022-11-25T12:13:50.377Z,1.60
2022-11-25T12:16:27.082Z,1.50
2022-11-25T12:19:01.626Z,1.40
2022-11-25T12:21:42.299Z,1.40
2022-11-25T12:24:21.763Z,1.40
2022-11-25T12:27:02.615Z,1.40
2022-11-25T12:29:38.385Z,1.30
2022-11-25T12:32:28.329Z,1.30
2022-11-25T12:35:03.595Z,1.40
2022-11-25T12:37:39.522Z,1.40
2022-11-25T12:40:16.908Z,1.40
2022-11-25T12:42:50.013Z,1.40
2022-11-25T12:45:23.881Z,1.40
2022-11-25T12:47:54.251Z,1.40
2022-11-25T12:50:35.967Z,1.40
2022-11-25T12:53:13.745Z,1.40
2022-11-25T12:55:43.964Z,1.40
2022-11-25T12:58:41.995Z,1.50
2022-11-25T13:01:51.128Z,1.50
2022-11-25T13:05:13.084Z,1.40
2022-11-25T13:08:02.900Z,1.40
2022-11-25T13:10:44.946Z,1.40
2022-11-25T13:13:43.949Z,1.40
2022-11-25T13:16:14.392Z,1.40
2022-11-25T13:18:45.903Z,1.40
2022-11-25T13:21:16.836Z,1.40
2022-11-25T13:23:52.500Z,1.40
2022-11-25T13:26:50.136Z,1.30
2022-11-25T13:30:05.119Z,1.30
2022-11-25T13:32:42.463Z,1.30
2022-11-25T13:35:33.804Z,1.30
2022-11-25T13:38:03.366Z,1.30
2022-11-25T13:40:38.989Z,1.30
2022-11-25T13:43:23.623Z,1.30
2022-11-25T13:45:53.963Z,1.30
2022-11-25T13:48:27.776Z,1.30
2022-11-25T13:51:17.026Z,1.30
2022-11-25T13:53:53.494Z,1.40
2022-11-25T13:56:29.935Z,1.40
2022-11-25T13:59:22.827Z,1.40
2022-11-25T14:01:56.302Z,1.30
2022-11-25T14:04:43.437Z,1.30
2022-11-25T14:07:28.656Z,1.30
2022-11-25T14:10:13.724Z,1.30
2022-11-25T14:13:09.911Z,1.40
2022-11-25T14:15:55.726Z,1.40
2022-11-25T14:19:27.994Z,1.40
2022-11-25T14:21:56.956Z,1.40
2022-11-25T14:24:39.428Z,1.40
2022-11-25T14:27:16.113Z,1.40
2022-11-25T14:29:52.760Z,1.40
2022-11-25T14:32:26.098Z,1.50
2022-11-25T14:35:01.871Z,1.50
2022-11-25T14:37:40.692Z,1.40
2022-11-25T14:40:16.181Z,1.40
2022-11-25T14:42:49.750Z,1.40
2022-11-25T14:45:26.601Z,1.40
2022-11-25T14:47:56.143Z,1.40
2022-11-25T14:50:34.783Z,1.40
2022-11-25T14:53:09.331Z,1.40
2022-11-25T14:55:39.672Z,1.30
2022-11-25T14:58:13.488Z,1.30
2022-11-25T15:00:52.912Z,1.20
2022-11-25T15:03:22.693Z,1.30
2022-11-25T15:05:57.539Z,1.20
2022-11-25T15:08:29.110Z,1.20
2022-11-25T15:11:01.780Z,1.20
2022-11-25T15:13:34.618Z,1.20
2022-11-25T15:16:11.979Z,1.20
2022-11-25T15:18:48.828Z,1.20
2022-11-25T15:21:23.442Z,1.20
2022-11-25T15:23:54.639Z,1.20
2022-11-25T15:26:25.919Z,1.20
2022-11-25T15:29:00.265Z,1.20
2022-11-25T15:31:32.036Z,1.20
2022-11-25T15:34:04.357Z,1.20
2022-11-25T15:36:34.358Z,1.20
2022-11-25T15:39:24.939Z,1.20
2022-11-25T15:41:57.463Z,1.20
2022-11-25T15:44:29.150Z,1.20
2022-11-25T15:47:02.205Z,1.20
2022-11-25T15:49:31.587Z,1.30
2022-11-25T15:52:07.283Z,1.20
2022-11-25T15:54:44.300Z,1.20
2022-11-25T15:57:19.663Z,1.20
2022-11-25T15:59:51.891Z,1.20
2022-11-25T16:02:50.505Z,1.20
2022-11-25T16:05:37.125Z,1.20
2022-11-25T16:08:26.826Z,1.20
2022-11-25T16:10:59.748Z,1.20
2022-11-25T16:13:37.795Z,1.20
2022-11-25T16:16:30.255Z,1.20
2022-11-25T16:19:13.099Z,1.20
2022-11-25T16:21:47.822Z,1.20
2022-11-25T16:24:41.933Z,1.20
2022-11-25T16:27:22.875Z,1.20
2022-11-25T16:29:55.991Z,1.20
2022-11-25T16:32:27.640Z,1.20
2022-11-25T16:35:02.608Z,1.20
2022-11-25T16:37:31.941Z,1.20
2022-11-25T16:40:01.985Z,1.20
2022-11-25T16:42:32.759Z,1.20
2022-11-25T16:45:02.943Z,1.20
2022-11-25T16:47:32.233Z,1.20
2022-11-25T16:50:02.326Z,1.20
2022-11-25T16:52:31.740Z,1.20
2022-11-25T16:55:01.506Z,1.30
2022-11-25T16:57:32.620Z,1.30
2022-11-25T17:00:08.682Z,1.30
2022-11-25T17:02:38.307Z,1.30
2022-11-25T17:05:18.220Z,1.20
2022-11-25T17:07:47.684Z,1.30
2022-11-25T17:10:18.335Z,1.20
2022-11-25T17:12:50.122Z,1.30
2022-11-25T17:15:22.663Z,1.30
2022-11-25T17:17:52.827Z,1.20
2022-11-25T17:20:25.369Z,1.20
2022-11-25T17:22:55.526Z,1.20
2022-11-25T17:25:25.878Z,1.10
2022-11-25T17:27:57.472Z,1.10
2022-11-25T17:30:29.420Z,1.10
2022-11-25T17:33:03.936Z,1.20
2022-11-25T17:35:33.551Z,1.30
2022-11-25T17:38:03.365Z,1.20
2022-11-25T17:40:33.875Z,1.20
2022-11-25T17:43:04.700Z,1.10
2022-11-25T17:45:34.513Z,1.10
2022-11-25T17:48:04.121Z,1.10
2022-11-25T17:50:36.393Z,1.10
2022-11-25T17:53:06.011Z,1.00
2022-11-25T17:55:38.083Z,1.00
2022-11-25T17:58:11.684Z,1.00
2022-11-25T18:00:45.372Z,1.00
2022-11-25T18:03:16.578Z,1.00
2022-11-25T18:05:46.382Z,1.00
2022-11-25T18:08:15.638Z,1.00
2022-11-25T18:10:47.979Z,1.10
2022-11-25T18:13:18.983Z,1.00
2022-11-25T18:15:49.283Z,1.10
2022-11-25T18:18:22.156Z,1.10
2022-11-25T18:20:52.813Z,1.00
2022-11-25T18:23:22.075Z,1.00
2022-11-25T18:25:52.615Z,1.00
2022-11-25T18:28:25.643Z,1.10
2022-11-25T18:31:05.901Z,1.10
2022-11-25T18:33:35.761Z,1.10
2022-11-25T18:36:06.207Z,1.10
2022-11-25T18:38:35.764Z,1.00
2022-11-25T18:41:08.760Z,1.10
2022-11-25T18:43:39.997Z,1.00
2022-11-25T18:46:10.436Z,1.00
2022-11-25T18:48:41.139Z,0.90
2022-11-25T18:51:13.349Z,0.90
2022-11-25T18:53:42.892Z,0.90
2022-11-25T18:56:17.897Z,0.90
2022-11-25T18:58:52.835Z,0.90
2022-11-25T19:01:25.073Z,0.90
2022-11-25T19:03:55.620Z,0.90
2022-11-25T19:06:28.372Z,0.80
2022-11-25T19:08:57.865Z,0.80
2022-11-25T19:11:31.556Z,0.80
2022-11-25T19:14:06.014Z,0.80
2022-11-25T19:16:36.203Z,0.70
2022-11-25T19:19:05.669Z,0.70
2022-11-25T19:21:35.595Z,0.70
2022-11-25T19:24:12.492Z,0.70
2022-11-25T19:26:45.928Z,0.70
2022-11-25T19:29:21.696Z,0.70
2022-11-25T19:31:54.394Z,0.80
2022-11-25T19:34:28.805Z,0.70
2022-11-25T19:36:58.647Z,0.80
2022-11-25T19:39:29.080Z,0.80
2022-11-25T19:41:59.410Z,0.80
2022-11-25T19:44:30.344Z,0.90
2022-11-25T19:47:15.219Z,1.00
2022-11-25T19:49:45.976Z,0.90
2022-11-25T19:52:18.229Z,0.90
2022-11-25T19:54:49.461Z,1.00
2022-11-25T19:57:22.203Z,1.00
2022-11-25T19:59:53.759Z,1.00
2022-11-25T20:02:26.186Z,1.00
2022-11-25T20:04:57.795Z,1.00
2022-11-25T20:07:30.308Z,1.10
2022-11-25T20:10:04.532Z,1.10
2022-11-25T20:12:35.230Z,1.10
2022-11-25T20:15:07.635Z,1.10
2022-11-25T20:17:39.657Z,1.10
2022-11-25T20:20:14.041Z,1.20
2022-11-25T20:22:52.342Z,1.20
2022-11-25T20:25:21.863Z,1.20
2022-11-25T20:27:52.288Z,1.30
2022-11-25T20:30:24.223Z,1.30
2022-11-25T20:32:54.455Z,1.30
2022-11-25T20:35:26.804Z,1.30
2022-11-25T20:37:58.321Z,1.20
2022-11-25T20:40:38.692Z,1.20
2022-11-25T20:43:20.023Z,1.10
2022-11-25T20:45:51.666Z,1.10
2022-11-25T20:48:21.597Z,1.00
2022-11-25T20:50:51.046Z,1.00
2022-11-25T20:53:22.789Z,1.00
2022-11-25T20:55:52.493Z,0.90
2022-11-25T20:58:24.311Z,0.90
2022-11-25T21:00:57.803Z,0.80
2022-11-25T21:03:29.567Z,0.80
2022-11-25T21:05:59.344Z,0.70
2022-11-25T21:08:31.832Z,0.70
2022-11-25T21:11:01.820Z,0.70
2022-11-25T21:13:32.772Z,0.80
2022-11-25T21:16:03.807Z,0.70
2022-11-25T21:18:33.863Z,0.70
2022-11-25T21:21:03.701Z,0.80
2022-11-25T21:23:38.163Z,0.70
2022-11-25T21:26:11.807Z,0.70
2022-11-25T21:28:45.088Z,0.80
2022-11-25T21:31:18.616Z,0.70
2022-11-25T21:33:49.399Z,0.80
2022-11-25T21:36:21.235Z,0.80
2022-11-25T21:38:53.703Z,0.80
2022-11-25T21:41:23.258Z,0.90
2022-11-25T21:43:53.332Z,0.90
2022-11-25T21:46:26.645Z,0.90
2022-11-25T21:48:56.745Z,0.90
2022-11-25T21:51:26.180Z,0.80
2022-11-25T21:53:56.395Z,0.80
2022-11-25T21:56:28.852Z,0.80
2022-11-25T21:59:00.070Z,0.80
2022-11-25T22:01:31.401Z,0.80
2022-11-25T22:04:01.793Z,0.80
2022-11-25T22:06:32.364Z,0.80
2022-11-25T22:09:02.389Z,0.70
2022-11-25T22:11:33.792Z,0.70
2022-11-25T22:14:06.204Z,0.70
2022-11-25T22:16:38.191Z,0.70
2022-11-25T22:19:08.403Z,0.70
2022-11-25T22:21:38.027Z,0.60
2022-11-25T22:24:16.029Z,0.70
2022-11-25T22:26:46.407Z,0.60
2022-11-25T22:29:17.665Z,0.70
2022-11-25T22:31:48.877Z,0.70
2022-11-25T22:34:20.758Z,0.70
2022-11-25T22:36:50.363Z,0.60
2022-11-25T22:39:22.503Z,0.60
2022-11-25T22:41:55.512Z,0.60
2022-11-25T22:44:30.247Z,0.60
2022-11-25T22:47:01.488Z,0.60
2022-11-25T22:49:36.250Z,0.50
2022-11-25T22:52:06.176Z,0.50
2022-11-25T22:54:36.217Z,0.50
2022-11-25T22:57:06.552Z,0.50
2022-11-25T22:59:37.383Z,0.50
2022-11-25T23:02:08.589Z,0.50
2022-11-25T23:04:39.042Z,0.50
2022-11-25T23:07:13.938Z,0.50
2022-11-25T23:09:45.224Z,0.50
2022-11-25T23:12:15.643Z,0.50
2022-11-25T23:14:45.514Z,0.50
2022-11-25T23:17:22.457Z,0.50
2022-11-25T23:19:53.462Z,0.50
2022-11-25T23:22:22.819Z,0.40
2022-11-25T23:24:52.592Z,0.40
2022-11-25T23:27:22.175Z,0.50
2022-11-25T23:29:52.956Z,0.40
2022-11-25T23:32:23.712Z,0.50
2022-11-25T23:34:53.931Z,0.50
2022-11-25T23:37:23.498Z,0.50
2022-11-25T23:39:55.052Z,0.60
2022-11-25T23:42:24.672Z,0.60
2022-11-25T23:44:54.935Z,0.60
2022-11-25T23:47:25.712Z,0.60
2022-11-25T23:49:59.143Z,0.60
2022-11-25T23:52:29.228Z,0.50
2022-11-25T23:54:59.579Z,0.60
2022-11-25T23:57:42.357Z,0.50
